Time;durP1;ratioP1;P1;durP2;ratioP2;P2;SDS_P1;SDS_P2;PMS_P1;PMS_P2;Temp;Humidity;BMP_temperature;BMP_pressure;BME280_temperature;BME280_humidity;BME280_pressure;Samples;Min_cycle;Max_cycle;Signal;HPM_P1;HPM_P2
2022/07/27 00:01:19;;;;;;;0.30;0.30;;;17.90;99.90;;;;;;4446129;32;20484;-63
2022/07/27 00:03:46;;;;;;;1.40;0.80;;;17.90;99.90;;;;;;4445965;32;20056;-62
2022/07/27 00:06:13;;;;;;;0.20;0.20;;;17.90;99.70;;;;;;4445703;32;20115;-63
2022/07/27 00:08:39;;;;;;;1.10;0.40;;;17.90;99.70;;;;;;4434367;32;20410;-63
2022/07/27 00:11:04;;;;;;;0.20;0.20;;;17.90;99.80;;;;;;4429412;32;20074;-63
2022/07/27 00:13:30;;;;;;;13.35;1.67;;;17.80;99.90;;;;;;4445796;32;20060;-63
2022/07/27 00:15:56;;;;;;;0.30;0.30;;;17.70;99.90;;;;;;4446215;32;20082;-63
2022/07/27 00:18:21;;;;;;;0.30;0.30;;;17.70;99.90;;;;;;4436247;32;20082;-62
2022/07/27 00:20:47;;;;;;;0.20;0.20;;;17.80;99.90;;;;;;4426470;32;20504;-63
2022/07/27 00:23:13;;;;;;;0.30;0.30;;;17.80;99.80;;;;;;4409926;32;20053;-63
2022/07/27 00:25:38;;;;;;;0.20;0.20;;;17.70;99.90;;;;;;4422165;32;20066;-63
2022/07/27 00:28:04;;;;;;;0.30;0.30;;;17.60;99.90;;;;;;4437156;32;20065;-63
2022/07/27 00:30:30;;;;;;;1.55;0.55;;;17.60;99.90;;;;;;4443897;32;20072;-63
2022/07/27 00:32:55;;;;;;;0.20;0.20;;;17.50;99.90;;;;;;4445140;32;20156;-63
2022/07/27 00:35:21;;;;;;;0.25;0.25;;;17.40;99.90;;;;;;4443396;32;20081;-63
2022/07/27 00:37:46;;;;;;;0.20;0.20;;;17.20;99.90;;;;;;4441173;32;20458;-62
2022/07/27 00:40:12;;;;;;;0.20;0.20;;;17.10;99.90;;;;;;4429051;32;20062;-63
2022/07/27 00:42:37;;;;;;;0.40;0.40;;;17.10;99.90;;;;;;4429452;32;20120;-63
2022/07/27 00:45:04;;;;;;;0.20;0.20;;;17.00;99.90;;;;;;4433437;32;20123;-63
2022/07/27 00:47:30;;;;;;;0.30;0.30;;;17.00;99.90;;;;;;4443260;32;20068;-63
2022/07/27 00:49:56;;;;;;;0.20;0.20;;;16.90;99.90;;;;;;4445026;32;20077;-62
2022/07/27 00:52:22;;;;;;;0.30;0.30;;;16.90;99.90;;;;;;4426918;32;20061;-63
2022/07/27 00:54:47;;;;;;;0.30;0.30;;;16.90;99.90;;;;;;4430258;32;20422;-63
2022/07/27 00:57:14;;;;;;;0.30;0.30;;;16.80;99.90;;;;;;4444881;32;20414;-63
2022/07/27 00:59:40;;;;;;;0.22;0.22;;;16.80;99.90;;;;;;4443698;32;20122;-63
2022/07/27 01:02:08;;;;;;;2.90;0.82;;;16.80;99.90;;;;;;4444274;32;20073;-64
2022/07/27 01:04:33;;;;;;;0.93;0.68;;;16.70;99.90;;;;;;4443071;32;20065;-63
2022/07/27 01:07:01;;;;;;;0.30;0.30;;;16.80;99.90;;;;;;4435875;32;20085;-63
2022/07/27 01:09:58;;;;;;;0.20;0.20;;;16.80;99.90;;;;;;4430094;32;20120;-64
2022/07/27 01:12:16;;;;;;;0.90;0.68;;;16.70;99.90;;;;;;4420645;32;20505;-64
2022/07/27 01:14:42;;;;;;;0.47;0.47;;;16.70;99.90;;;;;;4430097;32;20150;-63
2022/07/27 01:17:07;;;;;;;0.77;0.77;;;16.70;99.90;;;;;;4437560;32;20070;-63
2022/07/27 01:19:34;;;;;;;1.08;0.50;;;16.60;99.90;;;;;;4443559;32;20081;-63
2022/07/27 01:22:07;;;;;;;0.30;0.30;;;16.60;99.90;;;;;;4428011;32;20478;-63
2022/07/27 01:24:33;;;;;;;0.40;0.40;;;16.50;99.90;;;;;;4426894;32;20143;-63
2022/07/27 01:27:00;;;;;;;0.30;0.30;;;16.40;99.90;;;;;;4435180;32;20070;-63
2022/07/27 01:29:26;;;;;;;0.40;0.40;;;16.40;99.90;;;;;;4429066;32;20553;-63
2022/07/27 01:31:52;;;;;;;0.30;0.30;;;16.30;99.90;;;;;;4425160;32;104099;-63
2022/07/27 01:34:17;;;;;;;0.60;0.60;;;16.40;99.90;;;;;;4429336;32;20419;-64
2022/07/27 01:36:44;;;;;;;0.20;0.20;;;16.30;99.90;;;;;;4428625;32;20410;-64
2022/07/27 01:39:10;;;;;;;0.32;0.32;;;16.30;99.90;;;;;;4429237;32;20121;-63
2022/07/27 01:41:36;;;;;;;0.28;0.28;;;16.20;99.90;;;;;;4434599;32;20482;-63
2022/07/27 01:44:01;;;;;;;2.17;0.50;;;16.20;99.90;;;;;;4444581;32;20053;-64
2022/07/27 01:46:27;;;;;;;0.20;0.20;;;16.10;99.90;;;;;;4444345;32;20070;-63
2022/07/27 01:48:53;;;;;;;8.25;0.32;;;16.00;99.90;;;;;;4444961;32;20056;-63
2022/07/27 01:51:18;;;;;;;0.20;0.20;;;15.90;99.90;;;;;;4431742;32;20089;-63
2022/07/27 01:53:44;;;;;;;0.20;0.20;;;15.80;99.90;;;;;;4408996;32;20084;-63
2022/07/27 01:56:11;;;;;;;7.78;0.50;;;15.80;99.90;;;;;;4424720;32;20054;-64
2022/07/27 01:58:39;;;;;;;0.93;0.77;;;15.90;99.90;;;;;;4428299;32;20057;-63
2022/07/27 02:01:05;;;;;;;0.22;0.22;;;15.80;99.90;;;;;;4417513;32;20073;-64
2022/07/27 02:03:31;;;;;;;0.37;0.37;;;15.70;99.90;;;;;;4442541;32;20100;-63
2022/07/27 02:05:57;;;;;;;0.75;0.73;;;15.50;99.90;;;;;;4443568;32;20069;-64
2022/07/27 02:08:22;;;;;;;1.08;0.73;;;15.50;99.90;;;;;;4444073;32;20124;-63
2022/07/27 02:12:48;;;;;;;0.30;0.30;;;15.50;99.90;;;;;;4430127;32;20473;-63
2022/07/27 02:13:33;;;;;;;2.97;0.47;;;15.50;99.90;;;;;;4416967;32;20082;-63
2022/07/27 02:15:59;;;;;;;1.95;0.20;;;15.40;99.90;;;;;;4429032;32;20077;-63
2022/07/27 02:18:25;;;;;;;0.43;0.43;;;15.50;99.90;;;;;;4427339;32;20470;-63
2022/07/27 02:20:50;;;;;;;0.22;0.22;;;15.50;99.90;;;;;;4440653;32;20488;-63
2022/07/27 02:23:16;;;;;;;0.20;0.20;;;15.60;99.90;;;;;;4425678;32;20124;-63
2022/07/27 02:25:42;;;;;;;0.30;0.30;;;15.70;99.90;;;;;;4437960;32;20094;-63
2022/07/27 02:28:07;;;;;;;0.28;0.28;;;15.60;99.90;;;;;;4437374;32;20068;-63
2022/07/27 02:30:34;;;;;;;0.20;0.20;;;15.50;99.90;;;;;;4430427;32;20069;-63
2022/07/27 02:32:59;;;;;;;0.30;0.30;;;15.50;99.90;;;;;;4431827;32;20177;-63
2022/07/27 02:35:25;;;;;;;0.30;0.30;;;15.40;99.90;;;;;;4432046;32;20462;-63
2022/07/27 02:37:50;;;;;;;0.37;0.37;;;15.30;99.90;;;;;;4438556;32;20064;-63
2022/07/27 02:40:16;;;;;;;0.40;0.40;;;15.30;99.90;;;;;;4447086;32;20486;-63
2022/07/27 02:42:42;;;;;;;4.85;0.75;;;15.30;99.90;;;;;;4446268;32;20073;-62
2022/07/27 02:45:08;;;;;;;0.30;0.30;;;15.30;99.90;;;;;;4447176;32;20453;-63
2022/07/27 02:47:34;;;;;;;0.50;0.50;;;15.30;99.90;;;;;;4446209;32;20065;-63
2022/07/27 02:50:00;;;;;;;0.40;0.40;;;15.30;99.90;;;;;;4444722;32;20544;-63
2022/07/27 02:52:27;;;;;;;0.20;0.20;;;15.20;99.90;;;;;;4426070;32;20068;-63
2022/07/27 02:54:52;;;;;;;0.40;0.40;;;15.00;99.90;;;;;;4429826;32;20069;-63
2022/07/27 02:57:18;;;;;;;2.92;0.40;;;15.00;99.90;;;;;;4445744;32;20085;-63
2022/07/27 02:59:43;;;;;;;0.20;0.20;;;14.90;99.90;;;;;;4444995;32;20114;-63
2022/07/27 03:02:09;;;;;;;0.30;0.30;;;14.90;99.90;;;;;;4447000;32;20108;-63
2022/07/27 03:04:34;;;;;;;3.42;0.57;;;15.00;99.90;;;;;;4434290;32;20069;-64
2022/07/27 03:07:00;;;;;;;0.50;0.50;;;15.00;99.90;;;;;;4431412;32;20065;-63
2022/07/27 03:09:25;;;;;;;0.30;0.30;;;15.00;99.90;;;;;;4431338;32;20068;-63
2022/07/27 03:11:50;;;;;;;0.30;0.30;;;15.00;99.90;;;;;;4437371;32;20423;-64
2022/07/27 03:14:16;;;;;;;0.30;0.30;;;14.80;99.90;;;;;;4436168;32;20112;-63
2022/07/27 03:16:41;;;;;;;0.47;0.47;;;14.80;99.90;;;;;;4430989;32;20081;-63
2022/07/27 03:19:07;;;;;;;0.93;0.40;;;14.90;99.90;;;;;;4431391;32;20115;-63
2022/07/27 03:21:32;;;;;;;4.07;1.00;;;15.00;99.90;;;;;;4426634;32;20074;-63
2022/07/27 03:23:58;;;;;;;0.40;0.40;;;14.90;99.90;;;;;;4425995;32;20077;-63
2022/07/27 03:26:23;;;;;;;0.30;0.30;;;14.90;99.90;;;;;;4443354;32;20077;-64
2022/07/27 03:28:49;;;;;;;0.20;0.20;;;14.90;99.90;;;;;;4445083;32;20071;-63
2022/07/27 03:31:14;;;;;;;0.20;0.20;;;15.00;99.90;;;;;;4441205;32;20092;-63
2022/07/27 03:33:40;;;;;;;0.30;0.30;;;14.90;99.90;;;;;;4430001;32;20082;-63
2022/07/27 03:36:06;;;;;;;10.32;1.55;;;15.00;99.90;;;;;;4428858;32;20072;-64
2022/07/27 03:38:31;;;;;;;4.85;1.45;;;15.10;99.90;;;;;;4430791;32;20054;-63
2022/07/27 03:40:57;;;;;;;0.20;0.20;;;15.00;99.90;;;;;;4445846;32;20446;-62
2022/07/27 03:43:22;;;;;;;13.40;0.40;;;15.00;99.90;;;;;;4437764;32;20561;-63
2022/07/27 03:45:48;;;;;;;0.75;0.75;;;15.00;99.90;;;;;;4438604;32;20068;-63
2022/07/27 03:48:13;;;;;;;0.20;0.20;;;14.90;99.90;;;;;;4445423;32;20060;-63
2022/07/27 03:50:39;;;;;;;0.43;0.43;;;15.00;99.90;;;;;;4443299;32;20069;-63
2022/07/27 03:53:04;;;;;;;0.30;0.30;;;14.90;99.90;;;;;;4426477;32;20531;-63
2022/07/27 03:55:30;;;;;;;0.30;0.30;;;15.00;99.90;;;;;;4435307;32;20064;-63
2022/07/27 03:57:55;;;;;;;0.30;0.30;;;15.00;99.90;;;;;;4445146;32;20064;-63
2022/07/27 04:00:21;;;;;;;0.45;0.45;;;15.00;99.90;;;;;;4444864;32;20069;-63
2022/07/27 04:02:47;;;;;;;0.35;0.35;;;14.90;99.90;;;;;;4446371;32;20065;-63
2022/07/27 04:05:13;;;;;;;0.85;0.43;;;15.00;99.90;;;;;;4444410;32;20142;-63
2022/07/27 04:07:38;;;;;;;0.62;0.60;;;14.90;99.90;;;;;;4445765;32;20069;-63
2022/07/27 04:10:05;;;;;;;0.20;0.20;;;14.90;99.90;;;;;;4436919;32;20077;-63
2022/07/27 04:12:31;;;;;;;0.30;0.30;;;15.00;99.90;;;;;;4430012;32;20501;-63
2022/07/27 04:14:57;;;;;;;0.30;0.30;;;14.90;99.90;;;;;;4445618;32;20135;-63
2022/07/27 04:17:23;;;;;;;0.30;0.30;;;14.80;99.90;;;;;;4445414;32;20131;-63
2022/07/27 04:19:48;;;;;;;0.47;0.47;;;14.80;99.90;;;;;;4443816;32;20564;-63
2022/07/27 04:22:14;;;;;;;3.83;0.43;;;14.90;99.90;;;;;;4427772;32;20072;-62
2022/07/27 04:24:39;;;;;;;0.30;0.30;;;14.90;99.90;;;;;;4426111;32;20064;-63
2022/07/27 04:27:04;;;;;;;0.40;0.40;;;14.80;99.90;;;;;;4443603;32;20108;-63
2022/07/27 04:29:30;;;;;;;1.35;0.77;;;14.70;99.90;;;;;;4443762;32;20073;-63
2022/07/27 04:31:55;;;;;;;0.37;0.37;;;14.70;99.90;;;;;;4445830;32;20073;-63
2022/07/27 04:34:21;;;;;;;0.70;0.50;;;14.60;99.90;;;;;;4444466;32;20137;-63
2022/07/27 04:36:46;;;;;;;0.75;0.52;;;14.60;99.90;;;;;;4443437;32;20068;-63
2022/07/27 04:39:12;;;;;;;0.30;0.30;;;14.70;99.90;;;;;;4442288;32;20119;-63
2022/07/27 04:41:37;;;;;;;0.30;0.30;;;14.70;99.90;;;;;;4444405;32;20057;-63
2022/07/27 04:44:03;;;;;;;0.30;0.30;;;14.70;99.90;;;;;;4445323;32;20069;-62
2022/07/27 04:46:28;;;;;;;0.30;0.30;;;14.80;99.90;;;;;;4445667;32;20540;-63
2022/07/27 04:48:54;;;;;;;0.20;0.20;;;14.90;99.90;;;;;;4445287;32;20098;-64
2022/07/27 04:51:20;;;;;;;0.20;0.20;;;14.90;99.90;;;;;;4436028;32;20139;-62
2022/07/27 04:53:45;;;;;;;0.20;0.20;;;15.00;99.90;;;;;;4422061;32;20105;-62
2022/07/27 04:56:11;;;;;;;0.45;0.45;;;15.00;99.90;;;;;;4440698;32;20155;-63
2022/07/27 04:58:36;;;;;;;0.35;0.35;;;15.10;99.90;;;;;;4445320;32;20082;-63
2022/07/27 05:01:02;;;;;;;0.30;0.30;;;15.20;99.90;;;;;;4435059;32;20061;-63
2022/07/27 05:03:28;;;;;;;0.35;0.35;;;15.20;99.90;;;;;;4435476;32;20068;-63
2022/07/27 05:05:53;;;;;;;0.90;0.60;;;15.20;99.90;;;;;;4420658;32;20068;-63
2022/07/27 05:08:19;;;;;;;0.40;0.40;;;15.20;99.90;;;;;;4434267;32;20069;-63
2022/07/27 05:10:45;;;;;;;0.30;0.30;;;15.20;99.90;;;;;;4436692;32;20080;-63
2022/07/27 05:13:11;;;;;;;0.30;0.30;;;15.20;99.90;;;;;;4434286;32;20119;-63
2022/07/27 05:15:37;;;;;;;1.08;0.60;;;15.30;99.90;;;;;;4429095;32;20164;-63
2022/07/27 05:18:02;;;;;;;0.20;0.20;;;15.30;99.90;;;;;;4434940;32;20106;-63
2022/07/27 05:20:28;;;;;;;0.55;0.40;;;15.30;99.90;;;;;;4442710;32;20427;-63
2022/07/27 05:22:54;;;;;;;0.20;0.20;;;15.40;99.90;;;;;;4422478;32;20072;-63
2022/07/27 05:25:20;;;;;;;4.30;0.77;;;15.50;99.90;;;;;;4433790;32;20073;-63
2022/07/27 05:27:46;;;;;;;0.40;0.40;;;15.40;99.90;;;;;;4444610;32;20450;-63
2022/07/27 05:30:12;;;;;;;0.90;0.30;;;15.40;99.90;;;;;;4428280;32;20077;-63
2022/07/27 05:32:38;;;;;;;3.72;0.57;;;15.40;99.90;;;;;;4420701;32;20393;-63
2022/07/27 05:35:04;;;;;;;0.30;0.30;;;15.50;99.90;;;;;;4423713;32;20523;-63
2022/07/27 05:37:29;;;;;;;2.10;0.60;;;15.50;99.90;;;;;;4428411;32;20465;-63
2022/07/27 05:39:55;;;;;;;0.20;0.20;;;15.40;99.90;;;;;;4444184;32;20065;-63
2022/07/27 05:42:20;;;;;;;2.87;0.47;;;15.30;99.90;;;;;;4444390;32;20068;-63
2022/07/27 05:44:46;;;;;;;0.40;0.40;;;15.30;99.90;;;;;;4444374;32;20132;-63
2022/07/27 05:47:11;;;;;;;1.42;0.73;;;15.30;99.90;;;;;;4432822;32;20554;-63
2022/07/27 05:49:37;;;;;;;3.35;1.17;;;15.40;99.90;;;;;;4444230;32;20136;-63
2022/07/27 05:52:02;;;;;;;0.30;0.30;;;15.30;99.90;;;;;;4427063;32;20080;-63
2022/07/27 05:54:28;;;;;;;2.85;0.30;;;15.30;99.90;;;;;;4423227;32;20097;-63
2022/07/27 05:56:53;;;;;;;0.30;0.30;;;15.30;99.90;;;;;;4443697;32;20528;-63
2022/07/27 05:59:19;;;;;;;0.47;0.40;;;15.30;99.90;;;;;;4443380;32;20090;-64
2022/07/27 06:01:44;;;;;;;0.22;0.22;;;15.40;99.90;;;;;;4431847;32;20083;-63
2022/07/27 06:04:10;;;;;;;5.62;0.90;;;15.50;99.90;;;;;;4435942;32;20159;-64
2022/07/27 06:08:35;;;;;;;0.30;0.30;;;15.60;99.90;;;;;;4430294;32;20117;-63
2022/07/27 06:09:21;;;;;;;0.30;0.30;;;15.80;99.90;;;;;;4428467;32;20436;-63
2022/07/27 06:11:46;;;;;;;0.22;0.22;;;15.80;99.90;;;;;;4442790;32;20080;-63
2022/07/27 06:14:11;;;;;;;0.30;0.30;;;15.80;99.90;;;;;;4442933;32;20068;-63
2022/07/27 06:16:37;;;;;;;4.75;0.40;;;15.80;99.90;;;;;;4429075;32;20115;-63
2022/07/27 06:19:02;;;;;;;2.42;1.85;;;15.90;99.90;;;;;;4428333;32;20065;-63
2022/07/27 06:21:28;;;;;;;0.35;0.35;;;15.80;99.90;;;;;;4425273;32;20168;-63
2022/07/27 06:23:54;;;;;;;0.20;0.20;;;15.80;99.90;;;;;;4422613;32;20069;-64
2022/07/27 06:26:20;;;;;;;0.30;0.30;;;15.70;99.90;;;;;;4441424;32;20434;-63
2022/07/27 06:28:45;;;;;;;0.30;0.30;;;15.80;99.90;;;;;;4443406;32;20060;-65
2022/07/27 06:31:12;;;;;;;0.40;0.40;;;15.80;99.90;;;;;;4434183;32;20145;-63
2022/07/27 06:33:37;;;;;;;0.22;0.22;;;15.90;99.90;;;;;;4404658;32;20070;-63
2022/07/27 06:36:04;;;;;;;1.77;0.73;;;16.00;99.90;;;;;;4427092;32;20116;-63
2022/07/27 06:38:30;;;;;;;5.68;1.67;;;16.10;99.90;;;;;;4415385;32;20078;-63
2022/07/27 06:40:57;;;;;;;0.40;0.40;;;16.30;99.90;;;;;;4430778;32;20081;-63
2022/07/27 06:43:26;;;;;;;0.40;0.40;;;16.40;99.90;;;;;;4444813;32;20089;-63
2022/07/27 06:45:53;;;;;;;0.30;0.30;;;16.40;99.90;;;;;;4434326;32;20091;-63
2022/07/27 06:48:20;;;;;;;0.20;0.20;;;16.50;99.90;;;;;;4428874;32;20064;-63
2022/07/27 06:50:46;;;;;;;0.55;0.50;;;16.60;99.90;;;;;;4413254;32;20140;-63
2022/07/27 06:53:12;;;;;;;1.12;1.02;;;16.60;99.90;;;;;;4409576;32;20622;-63
2022/07/27 06:55:37;;;;;;;0.20;0.20;;;16.70;99.90;;;;;;4434977;32;20097;-63
2022/07/27 06:58:03;;;;;;;0.20;0.20;;;16.80;99.90;;;;;;4443983;32;20057;-63
2022/07/27 07:00:28;;;;;;;0.32;0.32;;;16.80;99.90;;;;;;4440247;32;20085;-62
2022/07/27 07:02:57;;;;;;;1.75;0.52;;;16.90;99.90;;;;;;4433390;32;20060;-63
2022/07/27 07:05:23;;;;;;;0.75;0.75;;;17.10;99.90;;;;;;4439908;32;20423;-63
2022/07/27 07:07:49;;;;;;;0.60;0.60;;;17.20;99.90;;;;;;4446061;32;20602;-63
2022/07/27 07:10:15;;;;;;;1.45;0.60;;;17.30;99.90;;;;;;4446095;32;20073;-63
2022/07/27 07:12:40;;;;;;;0.30;0.30;;;17.30;99.90;;;;;;4431541;32;20081;-63
2022/07/27 07:15:07;;;;;;;1.42;0.50;;;17.10;99.90;;;;;;4435658;32;20061;-62
2022/07/27 07:17:32;;;;;;;0.20;0.20;;;17.10;99.90;;;;;;4444687;32;20539;-63
2022/07/27 07:19:58;;;;;;;0.57;0.57;;;17.10;99.90;;;;;;4447060;32;20076;-63
2022/07/27 07:22:24;;;;;;;1.17;0.47;;;17.20;99.90;;;;;;4427995;32;20423;-63
2022/07/27 07:24:50;;;;;;;0.22;0.22;;;17.10;99.90;;;;;;4431515;32;20133;-63
2022/07/27 07:27:18;;;;;;;0.20;0.20;;;17.10;99.90;;;;;;4440962;32;20069;-63
2022/07/27 07:29:43;;;;;;;0.30;0.30;;;17.20;99.90;;;;;;4429946;32;20085;-63
2022/07/27 07:32:09;;;;;;;0.20;0.20;;;17.20;99.90;;;;;;4419798;32;20094;-63
2022/07/27 07:34:34;;;;;;;0.30;0.30;;;17.30;99.90;;;;;;4423581;32;20061;-64
2022/07/27 07:37:00;;;;;;;0.52;0.47;;;17.40;99.90;;;;;;4433010;32;21459;-63
2022/07/27 07:39:26;;;;;;;0.20;0.20;;;17.50;99.90;;;;;;4446932;32;20122;-63
2022/07/27 07:41:52;;;;;;;0.30;0.30;;;17.60;99.90;;;;;;4446399;32;20112;-63
2022/07/27 07:44:18;;;;;;;0.30;0.30;;;17.60;99.90;;;;;;4442867;32;20077;-63
2022/07/27 07:46:43;;;;;;;0.30;0.30;;;17.70;99.90;;;;;;4431643;32;20073;-63
2022/07/27 07:49:09;;;;;;;11.60;2.05;;;17.90;99.90;;;;;;4445200;32;20586;-63
2022/07/27 07:51:35;;;;;;;0.20;0.20;;;18.00;99.90;;;;;;4435869;32;20061;-64
2022/07/27 07:54:00;;;;;;;0.20;0.20;;;17.90;99.90;;;;;;4425661;32;20085;-63
2022/07/27 07:56:26;;;;;;;0.25;0.25;;;18.00;99.90;;;;;;4442815;32;20073;-64
2022/07/27 07:58:51;;;;;;;0.20;0.20;;;18.10;99.90;;;;;;4445011;32;20128;-63
2022/07/27 08:01:17;;;;;;;0.55;0.55;;;17.90;99.90;;;;;;4439706;32;20561;-63
2022/07/27 08:03:42;;;;;;;0.20;0.20;;;18.00;99.90;;;;;;4435178;32;20578;-63
2022/07/27 08:06:08;;;;;;;0.60;0.60;;;18.00;99.90;;;;;;4445050;32;20073;-63
2022/07/27 08:08:33;;;;;;;0.30;0.30;;;18.10;99.90;;;;;;4433094;32;20080;-63
2022/07/27 08:10:59;;;;;;;0.20;0.20;;;18.00;99.90;;;;;;4430895;32;20088;-64
2022/07/27 08:13:24;;;;;;;3.60;0.50;;;18.00;99.90;;;;;;4429467;32;20576;-64
2022/07/27 08:15:51;;;;;;;0.50;0.50;;;18.00;99.90;;;;;;4438924;32;20068;-64
2022/07/27 08:18:17;;;;;;;0.30;0.30;;;17.90;99.90;;;;;;4434828;32;20120;-63
2022/07/27 08:20:43;;;;;;;0.85;0.68;;;17.90;99.90;;;;;;4426929;32;20127;-63
2022/07/27 08:23:11;;;;;;;3.37;0.68;;;17.60;99.90;;;;;;4408413;32;20077;-63
2022/07/27 08:25:36;;;;;;;0.57;0.50;;;17.70;99.90;;;;;;4422886;32;20069;-63
2022/07/27 08:28:02;;;;;;;0.40;0.40;;;17.70;99.90;;;;;;4437971;32;20084;-63
2022/07/27 08:30:28;;;;;;;0.20;0.20;;;17.80;99.90;;;;;;4443546;32;20125;-63
2022/07/27 08:32:57;;;;;;;0.30;0.30;;;17.90;99.90;;;;;;4420034;32;20065;-63
2022/07/27 08:35:23;;;;;;;0.22;0.22;;;18.00;99.90;;;;;;4440125;32;20572;-63
2022/07/27 08:37:49;;;;;;;0.40;0.40;;;18.10;99.90;;;;;;4424549;32;20076;-63
2022/07/27 08:40:15;;;;;;;0.30;0.30;;;18.20;99.90;;;;;;4430167;32;20164;-63
2022/07/27 08:42:42;;;;;;;0.22;0.22;;;18.30;99.90;;;;;;4416858;32;20066;-63
2022/07/27 08:45:09;;;;;;;0.20;0.20;;;18.40;99.90;;;;;;4433073;32;20069;-63
2022/07/27 08:47:37;;;;;;;0.30;0.30;;;18.40;99.90;;;;;;4433694;32;20065;-63
2022/07/27 08:50:03;;;;;;;2.50;0.60;;;18.40;99.90;;;;;;4445523;32;20061;-63
2022/07/27 08:52:29;;;;;;;0.20;0.20;;;18.50;99.90;;;;;;4426868;32;20081;-63
2022/07/27 08:54:55;;;;;;;0.30;0.30;;;18.60;99.90;;;;;;4430503;32;20116;-63
2022/07/27 08:57:20;;;;;;;0.30;0.30;;;18.60;99.90;;;;;;4444141;32;20096;-63
2022/07/27 08:59:46;;;;;;;0.50;0.50;;;18.60;99.90;;;;;;4446462;32;20118;-62
2022/07/27 09:02:12;;;;;;;0.37;0.37;;;18.50;99.90;;;;;;4434805;32;20513;-63
2022/07/27 09:04:40;;;;;;;0.20;0.20;;;18.50;99.90;;;;;;4435948;32;20197;-62
2022/07/27 09:07:05;;;;;;;0.30;0.30;;;18.40;99.90;;;;;;4444603;32;20430;-63
2022/07/27 09:09:44;;;;;;;0.30;0.30;;;18.40;99.90;;;;;;4430044;32;20057;-63
2022/07/27 09:12:10;;;;;;;0.40;0.40;;;18.40;99.90;;;;;;4438473;32;20085;-63
2022/07/27 09:14:39;;;;;;;0.30;0.30;;;18.40;99.90;;;;;;4443514;32;20088;-62
2022/07/27 09:17:24;;;;;;;13.32;0.52;;;18.40;99.90;;;;;;4444272;32;20060;-62
2022/07/27 09:19:55;;;;;;;0.40;0.40;;;18.30;99.90;;;;;;4444913;32;20575;-62
2022/07/27 09:22:40;;;;;;;;;;;18.20;99.90;;;;;;4426250;32;20099;-62
2022/07/27 09:25:08;;;;;;;0.30;0.30;;;18.20;99.90;;;;;;4419331;32;20002;-60
2022/07/27 09:27:34;;;;;;;0.20;0.20;;;18.50;99.90;;;;;;4439559;32;20136;-62
2022/07/27 09:30:03;;;;;;;0.30;0.30;;;18.70;99.30;;;;;;4428546;32;20068;-62
2022/07/27 09:32:29;;;;;;;0.20;0.20;;;18.60;98.90;;;;;;4418485;32;20632;-63
2022/07/27 09:34:55;;;;;;;0.20;0.20;;;18.90;99.80;;;;;;4420051;32;20068;-64
2022/07/27 09:37:25;;;;;;;0.30;0.30;;;19.50;99.90;;;;;;4430545;32;20105;-62
2022/07/27 09:40:09;;;;;;;0.40;0.40;;;19.80;99.50;;;;;;4443040;32;20064;-62
2022/07/27 09:42:35;;;;;;;0.30;0.30;;;19.70;97.80;;;;;;4443480;32;20513;-62
2022/07/27 09:45:00;;;;;;;1.10;0.65;;;19.40;98.00;;;;;;4444087;32;20081;-64
2022/07/27 09:47:27;;;;;;;0.30;0.30;;;19.20;98.50;;;;;;4430757;32;20065;-63
2022/07/27 09:49:55;;;;;;;0.32;0.32;;;19.10;97.80;;;;;;4442592;32;20073;-62
2022/07/27 09:52:23;;;;;;;0.55;0.55;;;19.10;98.20;;;;;;4427100;32;20492;-62
2022/07/27 09:54:49;;;;;;;2.30;0.45;;;19.00;98.50;;;;;;4420060;32;20082;-64
2022/07/27 09:57:14;;;;;;;0.20;0.20;;;18.90;98.90;;;;;;4429342;32;20090;-63
2022/07/27 09:59:40;;;;;;;0.20;0.20;;;19.00;99.10;;;;;;4443194;32;20061;-62
2022/07/27 10:02:06;;;;;;;0.35;0.35;;;19.00;99.10;;;;;;4435035;32;20097;-63
2022/07/27 10:04:32;;;;;;;0.30;0.30;;;19.00;99.30;;;;;;4421181;32;20103;-63
2022/07/27 10:06:59;;;;;;;0.80;0.30;;;19.20;99.90;;;;;;4434893;32;20128;-64
2022/07/27 10:09:26;;;;;;;0.20;0.20;;;19.40;99.70;;;;;;4429661;32;20070;-63
2022/07/27 10:11:51;;;;;;;0.20;0.20;;;19.40;98.50;;;;;;4428917;32;20081;-62
2022/07/27 10:14:17;;;;;;;0.28;0.28;;;19.50;97.00;;;;;;4428510;32;20065;-63
2022/07/27 10:16:47;;;;;;;1.02;0.93;;;19.40;97.60;;;;;;4436851;32;20090;-63
2022/07/27 10:19:18;;;;;;;0.30;0.30;;;19.50;98.20;;;;;;4444714;32;20057;-62
2022/07/27 10:21:46;;;;;;;0.40;0.40;;;19.50;98.50;;;;;;4430929;32;20077;-62
2022/07/27 10:24:23;;;;;;;0.30;0.30;;;19.60;98.10;;;;;;4419259;32;20057;-62
2022/07/27 10:26:49;;;;;;;0.17;0.17;;;19.40;97.80;;;;;;4429162;32;20069;-62
2022/07/27 10:29:18;;;;;;;1.00;0.80;;;19.60;98.00;;;;;;4428479;32;20165;-63
2022/07/27 10:31:59;;;;;;;0.10;0.10;;;20.10;98.00;;;;;;4405537;32;20065;-63
2022/07/27 10:34:42;;;;;;;3.53;0.30;;;20.50;96.40;;;;;;4425495;32;20520;-63
2022/07/27 10:37:16;;;;;;;0.20;0.20;;;20.40;96.30;;;;;;4430636;32;20210;-62
2022/07/27 10:39:44;;;;;;;0.20;0.20;;;20.50;95.70;;;;;;4443696;32;20557;-62
2022/07/27 10:42:28;;;;;;;0.30;0.30;;;20.50;95.80;;;;;;4446373;32;20065;-62
2022/07/27 10:44:56;;;;;;;0.35;0.35;;;20.40;95.30;;;;;;4425715;32;20092;-62
2022/07/27 10:47:36;;;;;;;0.20;0.20;;;20.30;95.10;;;;;;4445940;32;20517;-63
2022/07/27 10:50:21;;;;;;;0.20;0.20;;;20.50;95.30;;;;;;4446036;32;20132;-63
2022/07/27 10:52:50;;;;;;;0.32;0.32;;;20.60;94.80;;;;;;4426289;32;20077;-62
2022/07/27 10:55:35;;;;;;;0.20;0.20;;;20.60;94.40;;;;;;4435430;32;20431;-62
2022/07/27 10:58:03;;;;;;;0.20;0.20;;;20.80;94.20;;;;;;4445855;32;20524;-62
2022/07/27 11:00:49;;;;;;;0.10;0.10;;;20.70;94.40;;;;;;4443015;32;20536;-62
2022/07/27 11:03:20;;;;;;;0.20;0.20;;;20.50;94.40;;;;;;4434256;32;20078;-62
2022/07/27 11:06:06;;;;;;;0.20;0.20;;;20.30;94.70;;;;;;4441215;32;20410;-62
2022/07/27 11:08:33;;;;;;;0.20;0.20;;;20.00;95.10;;;;;;4446645;32;20088;-63
2022/07/27 11:11:00;;;;;;;5.28;1.27;;;20.00;95.30;;;;;;4434935;32;20062;-63
2022/07/27 11:13:27;;;;;;;0.22;0.22;;;20.10;95.70;;;;;;4416457;32;20073;-64
2022/07/27 11:15:56;;;;;;;0.20;0.20;;;20.20;95.80;;;;;;4429019;32;20131;-63
2022/07/27 11:18:26;;;;;;;0.17;0.17;;;20.70;95.30;;;;;;4441319;32;20072;-63
2022/07/27 11:20:52;;;;;;;0.20;0.20;;;21.30;94.30;;;;;;4441214;32;20143;-63
2022/07/27 11:23:19;;;;;;;0.73;0.47;;;21.70;93.50;;;;;;4424488;32;20726;-63
2022/07/27 11:26:00;;;;;;;0.20;0.20;;;21.80;94.30;;;;;;4437743;32;20123;-63
2022/07/27 11:28:28;;;;;;;0.45;0.45;;;22.10;93.60;;;;;;4438378;32;20074;-62
2022/07/27 11:30:54;;;;;;;3.95;0.65;;;22.20;92.30;;;;;;4425928;32;20461;-63
2022/07/27 11:33:20;;;;;;;0.93;0.57;;;21.90;92.40;;;;;;4418089;32;20132;-63
2022/07/27 11:35:54;;;;;;;0.17;0.17;;;21.50;92.10;;;;;;4428566;32;20085;-63
2022/07/27 11:38:20;;;;;;;0.20;0.20;;;21.20;92.70;;;;;;4446459;32;20103;-62
2022/07/27 11:40:48;;;;;;;0.30;0.30;;;21.00;93.40;;;;;;4445549;32;20537;-62
2022/07/27 11:43:33;;;;;;;1.05;0.65;;;20.90;93.60;;;;;;4432399;32;20119;-62
2022/07/27 11:46:21;;;;;;;0.20;0.20;;;20.80;94.20;;;;;;4444919;32;20069;-62
2022/07/27 11:48:50;;;;;;;0.50;0.50;;;20.60;93.80;;;;;;4444391;32;20156;-61
2022/07/27 11:51:16;;;;;;;0.25;0.25;;;20.70;94.20;;;;;;4437275;32;20065;-63
2022/07/27 11:53:42;;;;;;;0.20;0.20;;;21.60;93.20;;;;;;4422447;32;20081;-63
2022/07/27 11:56:08;;;;;;;0.30;0.30;;;22.10;92.40;;;;;;4437541;32;20061;-63
2022/07/27 11:58:59;;;;;;;0.10;0.10;;;22.70;92.20;;;;;;4429757;32;20082;-63
2022/07/27 12:01:35;;;;;;;0.28;0.28;;;23.60;90.30;;;;;;4421382;32;20085;-63
2022/07/27 12:04:04;;;;;;;0.13;0.13;;;23.90;89.70;;;;;;4418122;32;20089;-63
2022/07/27 12:06:32;;;;;;;0.10;0.10;;;24.30;89.70;;;;;;4436724;32;20418;-64
2022/07/27 12:09:00;;;;;;;0.05;0.05;;;24.40;88.50;;;;;;4445260;32;20112;-63
2022/07/27 12:11:42;;;;;;;0.10;0.10;;;24.10;87.80;;;;;;4445811;32;20052;-63
2022/07/27 12:14:17;;;;;;;0.17;0.17;;;23.40;88.10;;;;;;4445531;32;20068;-63
2022/07/27 12:16:43;;;;;;;0.20;0.20;;;22.70;89.90;;;;;;4433699;32;20420;-63
2022/07/27 12:19:09;;;;;;;0.15;0.15;;;22.40;90.90;;;;;;4445190;32;20232;-65
2022/07/27 12:21:34;;;;;;;0.10;0.10;;;22.50;91.50;;;;;;4433994;32;20575;-63
2022/07/27 12:24:00;;;;;;;0.52;0.43;;;22.90;90.10;;;;;;4425345;32;20073;-64
2022/07/27 12:26:25;;;;;;;0.10;0.10;;;23.10;90.10;;;;;;4437088;32;20164;-64
2022/07/27 12:29:09;;;;;;;0.10;0.10;;;23.20;90.00;;;;;;4437915;32;20086;-64
2022/07/27 12:31:36;;;;;;;0.85;0.43;;;22.70;89.30;;;;;;4435251;32;20073;-64
2022/07/27 12:34:05;;;;;;;0.20;0.20;;;22.30;90.00;;;;;;4432442;32;20065;-64
2022/07/27 12:36:30;;;;;;;0.10;0.10;;;22.00;90.30;;;;;;4438084;32;20425;-64
2022/07/27 12:38:57;;;;;;;0.20;0.20;;;21.60;90.30;;;;;;4429580;32;20069;-63
2022/07/27 12:41:26;;;;;;;8.82;0.75;;;21.40;89.40;;;;;;4428958;32;20069;-63
2022/07/27 12:44:10;;;;;;;0.32;0.30;;;21.50;89.90;;;;;;4428599;32;20073;-63
2022/07/27 12:46:54;;;;;;;0.20;0.20;;;21.70;89.50;;;;;;4440573;32;20655;-63
2022/07/27 12:49:24;;;;;;;0.20;0.20;;;21.40;89.50;;;;;;4442105;32;20096;-63